Time;durP1;ratioP1;P1;durP2;ratioP2;P2;SDS_P1;SDS_P2;PMS_P1;PMS_P2;Temp;Humidity;BMP_temperature;BMP_pressure;BME280_temperature;BME280_humidity;BME280_pressure;Samples;Min_cycle;Max_cycle;Signal;HPM_P1;HPM_P2
2022/06/06 00:00:51;;;;;;;9.02;3.97;;;;;;;-144.07;100.00;58028.97;4844095;29;20118;-76
2022/06/06 00:03:17;;;;;;;9.35;3.65;;;;;;;-144.07;100.00;58028.97;4844211;29;20077;-76
2022/06/06 00:05:44;;;;;;;9.10;3.67;;;;;;;-144.07;100.00;58028.97;4844079;29;20065;-75
2022/06/06 00:08:11;;;;;;;6.43;3.60;;;;;;;-144.07;100.00;58028.97;4843476;29;20040;-75
2022/06/06 00:10:41;;;;;;;7.15;3.70;;;;;;;-144.07;100.00;58028.97;4833178;29;20037;-75
2022/06/06 00:13:08;;;;;;;7.60;3.15;;;;;;;-144.07;100.00;58028.97;4843653;29;20069;-75
2022/06/06 00:15:34;;;;;;;8.20;3.53;;;;;;;-144.07;100.00;58028.97;4843801;29;20041;-75
2022/06/06 00:18:00;;;;;;;7.90;3.67;;;;;;;-144.07;100.00;58028.97;4827333;29;20061;-79
2022/06/06 00:20:26;;;;;;;8.98;3.67;;;;;;;-144.07;100.00;58028.97;4821159;29;20046;-79
2022/06/06 00:22:51;;;;;;;7.60;3.65;;;;;;;-144.07;100.00;58028.97;4838069;29;20056;-75
2022/06/06 00:25:17;;;;;;;6.82;2.80;;;;;;;-144.07;100.00;58028.97;4813014;29;20062;-75
2022/06/06 00:27:43;;;;;;;8.93;3.38;;;;;;;-144.07;100.00;58028.97;4843132;29;20073;-76
2022/06/06 00:30:09;;;;;;;10.52;4.38;;;;;;;-144.07;100.00;58028.97;4847057;29;20042;-75
2022/06/06 00:35:20;;;;;;;7.90;3.28;;;;;;;-144.07;100.00;58028.97;4834019;29;20546;-75
2022/06/06 00:37:46;;;;;;;7.72;3.10;;;;;;;-144.07;100.00;58028.97;4842872;29;20049;-77
2022/06/06 00:40:12;;;;;;;7.40;3.35;;;;;;;-144.07;100.00;58028.97;4843340;29;20042;-76
2022/06/06 00:42:44;;;;;;;7.22;3.13;;;;;;;-144.07;100.00;58028.97;4842068;29;20034;-76
2022/06/06 00:45:28;;;;;;;8.02;4.30;;;;;;;-144.07;100.00;58028.97;4813670;29;20502;-75
2022/06/06 00:47:59;;;;;;;5.95;3.10;;;;;;;-144.07;100.00;58028.97;4842434;29;20049;-75
2022/06/06 00:50:31;;;;;;;7.55;2.80;;;;;;;-144.07;100.00;58028.97;4842212;29;20077;-75
2022/06/06 00:52:56;;;;;;;6.10;2.85;;;;;;;-144.07;100.00;58028.97;4826622;29;20066;-74
2022/06/06 00:55:24;;;;;;;7.95;2.90;;;;;;;-144.07;100.00;58028.97;4842876;29;20038;-75
2022/06/06 00:57:58;;;;;;;7.53;3.00;;;;;;;-144.07;100.00;58028.97;4833684;29;20098;-75
2022/06/06 01:00:24;;;;;;;6.78;2.65;;;;;;;-144.07;100.00;58028.97;4841500;29;20186;-76
2022/06/06 01:02:52;;;;;;;8.65;2.60;;;;;;;-144.07;100.00;58028.97;4842957;29;20045;-75
2022/06/06 01:05:18;;;;;;;7.35;2.80;;;;;;;-144.07;100.00;58028.97;4827376;29;20049;-75
2022/06/06 01:07:43;;;;;;;4.93;2.90;;;;;;;-144.07;100.00;58028.97;4829198;29;20033;-75
2022/06/06 01:10:09;;;;;;;6.93;3.05;;;;;;;-144.07;100.00;58028.97;4825606;29;20493;-75
2022/06/06 01:12:35;;;;;;;6.35;2.90;;;;;;;-144.07;100.00;58028.97;4826159;29;20061;-75
2022/06/06 01:15:04;;;;;;;6.70;2.50;;;;;;;-144.07;100.00;58028.97;4827870;29;20091;-75
2022/06/06 01:17:49;;;;;;;7.03;2.60;;;;;;;-144.07;100.00;58028.97;4846179;29;20065;-76
2022/06/06 01:20:34;;;;;;;6.13;2.80;;;;;;;-144.07;100.00;58028.97;4846871;29;20050;-75
2022/06/06 01:23:32;;;;;;;6.90;4.00;;;;;;;-144.07;100.00;58028.97;4852379;29;20502;-76
2022/06/06 01:26:23;;;;;;;7.43;2.72;;;;;;;-144.07;100.00;58028.97;4856453;29;20041;-75
2022/06/06 01:28:55;;;;;;;7.85;3.65;;;;;;;-144.07;100.00;58028.97;4842140;29;20045;-75
2022/06/06 01:31:30;;;;;;;8.02;2.80;;;;;;;-144.07;100.00;58028.97;4842449;29;20042;-74
2022/06/06 01:33:59;;;;;;;4.90;2.90;;;;;;;-144.07;100.00;58028.97;4841876;29;20493;-75
2022/06/06 01:36:27;;;;;;;9.32;4.00;;;;;;;-144.07;100.00;58028.97;4840821;29;20181;-74
2022/06/06 01:38:54;;;;;;;7.95;3.20;;;;;;;-144.07;100.00;58028.97;4842476;29;20041;-75
2022/06/06 01:41:30;;;;;;;6.43;2.80;;;;;;;-144.07;100.00;58028.97;4838289;29;20093;-76
2022/06/06 01:44:07;;;;;;;4.90;2.78;;;;;;;-144.07;100.00;58028.97;4842321;29;20098;-75
2022/06/06 01:46:34;;;;;;;4.80;2.50;;;;;;;-144.07;100.00;58028.97;4838015;29;20064;-74
2022/06/06 01:49:00;;;;;;;5.22;2.50;;;;;;;-144.07;100.00;58028.97;4840641;29;20042;-75
2022/06/06 01:51:29;;;;;;;5.00;2.90;;;;;;;-144.07;100.00;58028.97;4840739;29;20049;-76
2022/06/06 01:53:55;;;;;;;5.72;3.00;;;;;;;-144.07;100.00;58028.97;4846237;29;20037;-75
2022/06/06 01:56:27;;;;;;;5.13;2.65;;;;;;;-144.07;100.00;58028.97;4841469;29;20581;-75
2022/06/06 01:58:52;;;;;;;6.45;2.50;;;;;;;-144.07;100.00;58028.97;4827326;29;20057;-75
2022/06/06 02:01:18;;;;;;;7.43;2.83;;;;;;;-144.07;100.00;58028.97;4841436;29;20128;-74
2022/06/06 02:03:44;;;;;;;7.95;3.38;;;;;;;-144.07;100.00;58028.97;4835098;29;20046;-75
2022/06/06 02:06:10;;;;;;;6.53;3.13;;;;;;;-144.07;100.00;58028.97;4841688;29;20441;-75
2022/06/06 02:08:35;;;;;;;4.90;2.42;;;;;;;-144.07;100.00;58028.97;4841219;29;20038;-74
2022/06/06 02:11:01;;;;;;;4.72;2.95;;;;;;;-144.07;100.00;58028.97;4841752;29;20441;-74
2022/06/06 02:13:28;;;;;;;6.07;2.47;;;;;;;-144.07;100.00;58028.97;4833449;29;20121;-74
2022/06/06 02:15:53;;;;;;;4.78;2.78;;;;;;;-144.07;100.00;58028.97;4841735;29;20511;-74
2022/06/06 02:18:19;;;;;;;6.13;2.80;;;;;;;-144.07;100.00;58028.97;4839798;29;20110;-74
2022/06/06 02:20:45;;;;;;;7.78;3.22;;;;;;;-144.07;100.00;58028.97;4841237;29;20402;-75
2022/06/06 02:23:12;;;;;;;8.02;3.92;;;;;;;-144.07;100.00;58028.97;4841238;29;20084;-75
2022/06/06 02:25:38;;;;;;;7.82;4.28;;;;;;;-144.07;100.00;58028.97;4854691;29;20086;-75
2022/06/06 02:28:04;;;;;;;5.32;3.47;;;;;;;-144.07;100.00;58028.97;4840694;29;20049;-76
2022/06/06 02:30:31;;;;;;;5.43;3.63;;;;;;;-144.07;100.00;58028.97;4855316;29;20039;-74
2022/06/06 02:32:57;;;;;;;4.40;3.15;;;;;;;-144.07;100.00;58028.97;4841121;29;20061;-75
2022/06/06 02:35:29;;;;;;;6.57;3.42;;;;;;;-144.07;100.00;58028.97;4840060;29;20046;-75
2022/06/06 02:37:56;;;;;;;7.68;3.60;;;;;;;-144.07;100.00;58028.97;4839687;29;20041;-75
2022/06/06 02:40:22;;;;;;;5.22;3.25;;;;;;;-144.07;100.00;58028.97;4841090;29;20038;-74
2022/06/06 02:42:48;;;;;;;7.15;3.17;;;;;;;-144.07;100.00;58028.97;4839757;29;20076;-74
2022/06/06 02:45:17;;;;;;;6.90;2.85;;;;;;;-144.07;100.00;58028.97;4841029;29;20181;-75
2022/06/06 02:47:47;;;;;;;5.20;3.38;;;;;;;-144.07;100.00;58028.97;4841051;29;20041;-74
2022/06/06 02:50:15;;;;;;;7.68;3.55;;;;;;;-144.07;100.00;58028.97;4840896;29;20573;-76
2022/06/06 02:52:40;;;;;;;5.97;3.70;;;;;;;-144.07;100.00;58028.97;4845894;29;20405;-75
2022/06/06 02:55:08;;;;;;;9.40;3.97;;;;;;;-144.07;100.00;58028.97;4824643;29;20045;-76
2022/06/06 02:57:41;;;;;;;6.20;3.80;;;;;;;-144.07;100.00;58028.97;4841253;29;20111;-76
2022/06/06 03:00:09;;;;;;;8.40;3.90;;;;;;;-144.07;100.00;58028.97;4809639;29;20057;-75
2022/06/06 03:02:35;;;;;;;7.28;3.22;;;;;;;-144.07;100.00;58028.97;4809239;29;20049;-75
2022/06/06 03:05:03;;;;;;;7.05;3.22;;;;;;;-144.07;100.00;58028.97;4825697;29;20117;-76
2022/06/06 03:07:28;;;;;;;4.13;3.15;;;;;;;-144.07;100.00;58028.97;4839664;29;20128;-75
2022/06/06 03:10:41;;;;;;;5.72;2.90;;;;;;;-144.07;100.00;58028.97;4839734;29;20140;-75
2022/06/06 03:13:20;;;;;;;6.93;2.83;;;;;;;-144.07;100.00;58028.97;4838871;29;20494;-76
2022/06/06 03:21:36;;;;;;;4.90;2.85;;;;;;;-144.07;100.00;58028.97;4844443;29;20048;-76
2022/06/06 03:24:25;;;;;;;6.32;3.30;;;;;;;-144.07;100.00;58028.97;4843642;29;20809;-75
2022/06/06 03:27:11;;;;;;;7.55;3.40;;;;;;;-144.07;100.00;58028.97;4844577;29;20561;-75
2022/06/06 03:29:58;;;;;;;5.95;3.35;;;;;;;-144.07;100.00;58028.97;4844457;29;20399;-76
2022/06/06 03:32:45;;;;;;;6.22;3.47;;;;;;;-144.07;100.00;58028.97;4832849;29;20046;-75
2022/06/06 03:35:17;;;;;;;6.30;3.10;;;;;;;-144.07;100.00;58028.97;4850175;29;20050;-75
2022/06/06 03:38:11;;;;;;;8.27;3.30;;;;;;;-144.07;100.00;58028.97;4827847;29;20141;-76
2022/06/06 03:40:49;;;;;;;8.90;3.40;;;;;;;-144.07;100.00;58028.97;4838607;29;20042;-74
2022/06/06 03:43:42;;;;;;;7.85;2.90;;;;;;;-144.07;100.00;58028.97;4848296;29;20422;-75
2022/06/06 03:46:17;;;;;;;8.07;3.50;;;;;;;-144.07;100.00;58028.97;4850127;29;20042;-77
2022/06/06 03:49:07;;;;;;;7.53;3.50;;;;;;;-144.07;100.00;58028.97;4839696;29;20513;-77
2022/06/06 03:51:43;;;;;;;6.80;3.10;;;;;;;-144.07;100.00;58028.97;4848886;29;20409;-76
2022/06/06 03:54:09;;;;;;;;;;;;;;;-144.07;100.00;58028.97;4834184;29;20064;-76
2022/06/06 03:56:54;;;;;;;7.95;3.45;;;;;;;-144.07;100.00;58028.97;4866682;29;19916;-75
2022/06/06 03:59:20;;;;;;;9.82;4.13;;;;;;;-144.07;100.00;58028.97;4833293;29;20077;-78
2022/06/06 04:01:46;;;;;;;7.20;2.72;;;;;;;-144.07;100.00;58028.97;4852455;29;20466;-77
2022/06/06 04:04:12;;;;;;;5.45;2.72;;;;;;;-144.07;100.00;58028.97;4830499;29;20553;-78
2022/06/06 04:06:37;;;;;;;7.45;3.38;;;;;;;-144.07;100.00;58028.97;4858090;29;20490;-76
2022/06/06 04:09:03;;;;;;;6.80;2.97;;;;;;;-144.07;100.00;58028.97;4859166;29;20052;-77
2022/06/06 04:11:29;;;;;;;7.07;2.85;;;;;;;-144.07;100.00;58028.97;4836025;29;20041;-77
2022/06/06 04:14:39;;;;;;;4.78;2.47;;;;;;;-144.07;100.00;58028.97;4854070;29;20052;-76
2022/06/06 04:17:08;;;;;;;8.75;2.80;;;;;;;-144.07;100.00;58028.97;4853937;29;20069;-75
2022/06/06 04:20:11;;;;;;;5.03;2.90;;;;;;;-144.07;100.00;58028.97;4851873;29;20074;-76
2022/06/06 04:22:49;;;;;;;7.38;2.40;;;;;;;-144.07;100.00;58028.97;4861340;29;20050;-77
2022/06/06 04:25:33;;;;;;;5.68;2.50;;;;;;;-144.07;100.00;58028.97;4853352;29;20178;-76
2022/06/06 04:28:15;;;;;;;6.28;2.60;;;;;;;-144.07;100.00;58028.97;4848979;29;20071;-76
2022/06/06 04:31:10;;;;;;;9.85;2.63;;;;;;;-144.07;100.00;58028.97;4842521;29;20053;-77
2022/06/06 04:33:50;;;;;;;6.45;2.50;;;;;;;-144.07;100.00;58028.97;4828099;29;20058;-78
2022/06/06 04:36:31;;;;;;;5.28;2.20;;;;;;;-144.07;100.00;58028.97;4855998;29;20103;-76
2022/06/06 04:39:20;;;;;;;6.38;3.10;;;;;;;-144.07;100.00;58028.97;4842335;29;20053;-77
2022/06/06 04:41:49;;;;;;;5.57;3.10;;;;;;;-144.07;100.00;58028.97;4836021;29;20054;-77
2022/06/06 04:44:39;;;;;;;8.98;2.70;;;;;;;-144.07;100.00;58028.97;4855835;29;20045;-77
2022/06/06 04:47:10;;;;;;;3.85;2.28;;;;;;;-144.07;100.00;58028.97;4836453;29;20493;-76
2022/06/06 04:49:36;;;;;;;7.13;2.30;;;;;;;-144.07;100.00;58028.97;4828426;29;20363;-78
2022/06/06 04:52:02;;;;;;;3.90;2.30;;;;;;;-144.07;100.00;58028.97;4843615;29;20041;-77
2022/06/06 04:54:29;;;;;;;3.88;2.05;;;;;;;-144.07;100.00;58028.97;4833995;29;20064;-78
2022/06/06 04:56:55;;;;;;;6.00;2.42;;;;;;;-144.07;100.00;58028.97;4843872;29;20033;-76
2022/06/06 04:59:21;;;;;;;5.53;2.47;;;;;;;-144.07;100.00;58028.97;4845033;29;20491;-77
2022/06/06 05:01:47;;;;;;;5.07;2.25;;;;;;;-144.07;100.00;58028.97;4834418;29;20096;-76
2022/06/06 05:04:13;;;;;;;2.80;2.00;;;;;;;-144.07;100.00;58028.97;4855537;29;20062;-77
2022/06/06 05:06:55;;;;;;;4.07;2.05;;;;;;;-144.07;100.00;58028.97;4842607;29;20526;-77
2022/06/06 05:09:33;;;;;;;5.97;2.20;;;;;;;-144.07;100.00;58028.97;4833880;29;20137;-76
2022/06/06 05:12:15;;;;;;;5.65;2.60;;;;;;;-144.07;100.00;58028.97;4843076;29;20045;-77
2022/06/06 05:15:18;;;;;;;4.75;2.47;;;;;;;-144.07;100.00;58028.97;4844377;29;20046;-78
2022/06/06 05:18:08;;;;;;;7.05;3.08;;;;;;;-144.07;100.00;58028.97;4842243;29;20085;-78
2022/06/06 05:21:02;;;;;;;6.38;2.72;;;;;;;-144.07;100.00;58028.97;4827533;29;20505;-79
2022/06/06 05:23:50;;;;;;;5.80;2.00;;;;;;;-144.07;100.00;58028.97;4857202;29;20477;-79
2022/06/06 05:26:38;;;;;;;5.07;2.00;;;;;;;-144.07;100.00;58028.97;4829323;29;20050;-79
2022/06/06 05:29:31;;;;;;;4.47;2.13;;;;;;;-144.07;100.00;58028.97;4840125;29;20050;-77
2022/06/06 05:32:03;;;;;;;3.30;2.10;;;;;;;-144.07;100.00;58028.97;4845265;29;20034;-79
2022/06/06 05:34:37;;;;;;;5.93;1.95;;;;;;;-144.07;100.00;58028.97;4843778;29;20052;-75
2022/06/06 05:37:30;;;;;;;6.30;1.80;;;;;;;-144.07;100.00;58028.97;4819473;29;20048;-77
2022/06/06 05:40:17;;;;;;;2.85;2.08;;;;;;;-144.07;100.00;58028.97;4824331;29;20061;-77
2022/06/06 05:42:49;;;;;;;;;;;;;;;-144.07;100.00;58028.97;4843464;29;20098;-77
2022/06/06 05:45:22;;;;;;;4.22;1.77;;;;;;;-144.07;100.00;58028.97;4844362;29;19920;-81
2022/06/06 05:48:28;;;;;;;5.63;1.90;;;;;;;-144.07;100.00;58028.97;4837171;29;20073;-78
2022/06/06 05:51:29;;;;;;;2.70;1.80;;;;;;;-144.07;100.00;58028.97;4839573;29;20099;-76
2022/06/06 05:54:39;;;;;;;4.18;1.60;;;;;;;-144.07;100.00;58028.97;4823132;29;20145;-76
2022/06/06 05:57:30;;;;;;;5.40;1.90;;;;;;;-144.07;100.00;58028.97;4840907;29;20048;-77
2022/06/06 06:00:00;;;;;;;3.20;1.70;;;;;;;-144.07;100.00;58028.97;4827523;29;20079;-77
2022/06/06 06:02:44;;;;;;;3.75;1.70;;;;;;;-144.07;100.00;58028.97;4843110;29;20045;-79
2022/06/06 06:05:48;;;;;;;3.97;1.63;;;;;;;-144.07;100.00;58028.97;4839781;29;20045;-76
2022/06/06 06:08:46;;;;;;;2.33;1.58;;;;;;;-144.07;100.00;58028.97;4838516;29;20066;-77
2022/06/06 06:11:12;;;;;;;3.00;1.70;;;;;;;-144.07;100.00;58028.97;4842680;29;20062;-77
2022/06/06 06:13:59;;;;;;;6.10;1.52;;;;;;;-144.07;100.00;58028.97;4843885;29;20045;-79
2022/06/06 06:16:27;;;;;;;3.45;1.75;;;;;;;-144.07;100.00;58028.97;4828517;29;20048;-76
2022/06/06 06:19:01;;;;;;;5.40;1.90;;;;;;;-144.07;100.00;58028.97;4827542;29;20061;-77
2022/06/06 06:21:28;;;;;;;2.70;1.77;;;;;;;-144.07;100.00;58028.97;4827986;29;20128;-74
2022/06/06 06:24:07;;;;;;;3.97;2.30;;;;;;;-144.07;100.00;58028.97;4826953;29;20087;-77
2022/06/06 06:26:33;;;;;;;2.97;2.00;;;;;;;-144.07;100.00;58028.97;4841703;29;20097;-78
2022/06/06 06:29:01;;;;;;;2.97;1.90;;;;;;;-144.07;100.00;58028.97;4810283;29;20038;-77
2022/06/06 06:32:08;;;;;;;2.88;1.65;;;;;;;-144.07;100.00;58028.97;4823784;29;20041;-78
2022/06/06 06:34:51;;;;;;;2.60;1.75;;;;;;;-144.07;100.00;58028.97;4851342;29;20133;-77
2022/06/06 06:37:22;;;;;;;1.95;1.40;;;;;;;-144.07;100.00;58028.97;4835051;29;20042;-78
2022/06/06 06:39:55;;;;;;;2.92;1.77;;;;;;;-144.07;100.00;58028.97;4834701;29;20072;-78
2022/06/06 06:42:23;;;;;;;4.20;1.83;;;;;;;-144.07;100.00;58028.97;4817881;29;20049;-77
2022/06/06 06:45:08;;;;;;;2.08;1.50;;;;;;;-144.07;100.00;58028.97;4839554;29;20125;-76
2022/06/06 06:47:35;;;;;;;3.33;1.75;;;;;;;-144.07;100.00;58028.97;4826382;29;20054;-77
2022/06/06 06:50:09;;;;;;;3.22;1.77;;;;;;;-144.07;100.00;58028.97;4841422;29;20599;-75
2022/06/06 06:52:50;;;;;;;5.50;1.80;;;;;;;-144.07;100.00;58028.97;4842663;29;20038;-78
2022/06/06 06:55:28;;;;;;;5.38;1.83;;;;;;;-144.07;100.00;58028.97;4855385;29;20077;-75
2022/06/06 06:58:08;;;;;;;2.78;1.80;;;;;;;-144.07;100.00;58028.97;4842150;29;20050;-75
2022/06/06 07:00:41;;;;;;;2.55;1.90;;;;;;;-144.07;100.00;58028.97;4831389;29;20478;-76
2022/06/06 07:09:05;;;;;;;3.85;1.90;;;;;;;-144.07;100.00;58028.97;4841753;29;20049;-76
2022/06/06 07:11:41;;;;;;;4.00;2.10;;;;;;;-144.07;100.00;58028.97;4841754;29;20496;-75
2022/06/06 07:14:13;;;;;;;;;;;;;;;-144.07;100.00;58028.97;4841198;29;20506;-77
2022/06/06 07:16:40;;;;;;;3.13;1.70;;;;;;;-144.07;100.00;58028.97;4841943;29;19920;-81
2022/06/06 07:19:17;;;;;;;7.18;1.70;;;;;;;-144.07;100.00;58028.97;4825735;29;20057;-78
2022/06/06 07:21:45;;;;;;;5.65;1.60;;;;;;;-144.07;100.00;58028.97;4815581;29;20523;-76
2022/06/06 07:24:14;;;;;;;5.25;1.70;;;;;;;-144.07;100.00;58028.97;4825400;29;20133;-77
2022/06/06 07:26:41;;;;;;;3.08;1.40;;;;;;;-144.07;100.00;58028.97;4830505;29;20042;-76
2022/06/06 07:29:08;;;;;;;3.05;1.70;;;;;;;-144.07;100.00;58028.97;4825526;29;20395;-75
2022/06/06 07:31:38;;;;;;;3.05;1.38;;;;;;;-144.07;100.00;58028.97;4822979;29;20062;-77
2022/06/06 07:34:22;;;;;;;3.63;1.40;;;;;;;-144.07;100.00;58028.97;4852175;29;20437;-76
2022/06/06 07:36:57;;;;;;;2.85;1.40;;;;;;;-144.07;100.00;58028.97;4842588;29;20506;-77
2022/06/06 07:39:46;;;;;;;3.05;1.33;;;;;;;-144.07;100.00;58028.97;4826364;29;20069;-77
2022/06/06 07:42:51;;;;;;;2.25;1.50;;;;;;;-144.07;100.00;58028.97;4825028;29;20426;-77
2022/06/06 07:45:29;;;;;;;2.95;1.70;;;;;;;-144.07;100.00;58028.97;4850555;29;20045;-77
2022/06/06 07:48:10;;;;;;;2.33;1.30;;;;;;;-144.07;100.00;58028.97;4841708;29;20121;-76
2022/06/06 07:50:44;;;;;;;3.55;1.30;;;;;;;-144.07;100.00;58028.97;4842190;29;20090;-76
2022/06/06 07:53:34;;;;;;;4.60;1.38;;;;;;;-144.07;100.00;58028.97;4844724;29;20106;-77
2022/06/06 07:56:23;;;;;;;2.47;1.25;;;;;;;-144.07;100.00;58028.97;4841383;29;20034;-77
2022/06/06 07:59:19;;;;;;;5.57;1.33;;;;;;;-144.07;100.00;58028.97;4831951;29;20041;-76
2022/06/06 08:02:05;;;;;;;3.35;1.30;;;;;;;-144.07;100.00;58028.97;4844070;29;20397;-78
2022/06/06 08:04:46;;;;;;;;;;;;;;;-144.07;100.00;58028.97;4844365;29;20052;-79
2022/06/06 08:07:21;;;;;;;3.45;1.42;;;;;;;-144.07;100.00;58028.97;4845108;29;19931;-76
2022/06/06 08:10:05;;;;;;;3.92;1.40;;;;;;;-144.07;100.00;58028.97;4827932;29;20459;-76
2022/06/06 08:13:08;;;;;;;3.15;1.85;;;;;;;-144.07;100.00;58028.97;4843771;29;20124;-78
2022/06/06 08:15:43;;;;;;;4.10;1.30;;;;;;;-144.07;100.00;58028.97;4854919;29;20071;-77
2022/06/06 08:18:33;;;;;;;2.80;1.50;;;;;;;-144.07;100.00;58028.97;4838739;29;20494;-77
2022/06/06 08:21:11;;;;;;;3.33;1.40;;;;;;;-144.07;100.00;58028.97;4843588;29;20110;-79
2022/06/06 08:23:37;;;;;;;3.38;1.42;;;;;;;-144.07;100.00;58028.97;4837218;29;20413;-76
2022/06/06 08:26:03;;;;;;;2.65;1.27;;;;;;;-144.07;100.00;58028.97;4813708;29;20537;-77
2022/06/06 08:28:30;;;;;;;2.85;1.25;;;;;;;-144.07;100.00;58028.97;4825313;29;20066;-78
2022/06/06 08:30:57;;;;;;;2.10;1.40;;;;;;;-144.07;100.00;58028.97;4856240;29;20086;-77
2022/06/06 08:33:24;;;;;;;6.60;1.40;;;;;;;-144.07;100.00;58028.97;4833798;29;20052;-77
2022/06/06 08:35:59;;;;;;;4.72;1.15;;;;;;;-144.07;100.00;58028.97;4836971;29;20125;-77
2022/06/06 08:38:32;;;;;;;3.95;1.40;;;;;;;-144.07;100.00;58028.97;4849180;29;20124;-77
2022/06/06 08:41:39;;;;;;;2.40;1.25;;;;;;;-144.07;100.00;58028.97;4821987;29;20098;-78
2022/06/06 08:44:44;;;;;;;2.85;1.10;;;;;;;-144.07;100.00;58028.97;4829827;29;20058;-76
2022/06/06 08:47:29;;;;;;;5.65;1.58;;;;;;;-144.07;100.00;58028.97;4850789;29;20050;-78
2022/06/06 08:53:39;;;;;;;4.28;1.23;;;;;;;-144.07;100.00;58028.97;4856912;29;20103;-76
2022/06/06 08:56:14;;;;;;;2.78;1.27;;;;;;;-144.07;100.00;58028.97;4856724;29;20523;-76
2022/06/06 08:59:16;;;;;;;3.73;1.63;;;;;;;-144.07;100.00;58028.97;4859065;29;20502;-78
2022/06/06 09:02:09;;;;;;;3.17;1.45;;;;;;;-144.07;100.00;58028.97;4844153;29;20076;-78
2022/06/06 09:04:55;;;;;;;2.22;1.30;;;;;;;-144.07;100.00;58028.97;4844279;29;20828;-77
2022/06/06 09:07:49;;;;;;;2.33;1.30;;;;;;;-144.07;100.00;58028.97;4834351;29;20107;-77
2022/06/06 09:10:20;;;;;;;2.65;1.20;;;;;;;-144.07;100.00;58028.97;4843926;29;20042;-79
2022/06/06 09:13:31;;;;;;;2.60;1.08;;;;;;;-144.07;100.00;58028.97;4843081;29;20077;-75
2022/06/06 09:16:32;;;;;;;2.38;1.10;;;;;;;-144.07;100.00;58028.97;4838867;29;20064;-77
2022/06/06 09:19:11;;;;;;;2.00;1.20;;;;;;;-144.07;100.00;58028.97;4857986;29;20061;-77
2022/06/06 09:21:56;;;;;;;2.80;1.15;;;;;;;-144.07;100.00;58028.97;4843463;29;20514;-76
2022/06/06 09:25:02;;;;;;;3.83;1.58;;;;;;;-144.07;100.00;58028.97;4844370;29;20102;-78
2022/06/06 09:28:16;;;;;;;2.58;1.15;;;;;;;-144.07;100.00;58028.97;4845967;29;20409;-78
2022/06/06 09:31:02;;;;;;;3.13;0.95;;;;;;;-144.07;100.00;58028.97;4827274;29;20053;-78
2022/06/06 09:33:34;;;;;;;1.55;1.00;;;;;;;-144.07;100.00;58028.97;4851419;29;20065;-77
2022/06/06 09:36:31;;;;;;;1.60;1.10;;;;;;;-144.07;100.00;58028.97;4827711;29;20048;-78
2022/06/06 09:39:14;;;;;;;3.58;1.10;;;;;;;-144.07;100.00;58028.97;4852748;29;20045;-78
2022/06/06 09:41:46;;;;;;;2.38;1.48;;;;;;;-144.07;100.00;58028.97;4844301;29;20498;-80
2022/06/06 09:44:13;;;;;;;2.72;1.70;;;;;;;-144.07;100.00;58028.97;4846738;29;20050;-77
2022/06/06 09:47:01;;;;;;;3.65;1.20;;;;;;;-144.07;100.00;58028.97;4842293;29;20041;-78
2022/06/06 09:49:52;;;;;;;5.10;1.10;;;;;;;-144.07;100.00;58028.97;4842998;29;20402;-78
2022/06/06 09:52:43;;;;;;;2.17;0.95;;;;;;;-144.07;100.00;58028.97;4841929;29;20038;-76
2022/06/06 10:01:33;;;;;;;4.38;1.00;;;;;;;-144.07;100.00;58028.97;4842441;29;20106;-77
2022/06/06 10:04:36;;;;;;;2.22;1.10;;;;;;;-144.07;100.00;58028.97;4851194;29;20049;-77
2022/06/06 10:07:21;;;;;;;1.90;1.10;;;;;;;-144.07;100.00;58028.97;4858445;29;20053;-78
2022/06/06 10:10:00;;;;;;;3.25;1.20;;;;;;;-144.07;100.00;58028.97;4844154;29;20045;-77
2022/06/06 10:12:31;;;;;;;2.58;1.08;;;;;;;-144.07;100.00;58028.97;4841171;29;20498;-80
2022/06/06 10:15:35;;;;;;;3.63;1.20;;;;;;;-144.07;100.00;58028.97;4859065;29;20046;-79
2022/06/06 10:18:26;;;;;;;2.13;1.08;;;;;;;-144.07;100.00;58028.97;4847750;29;20058;-78
2022/06/06 10:20:57;;;;;;;3.38;1.10;;;;;;;-144.07;100.00;58028.97;4835602;29;20056;-79
2022/06/06 10:24:02;;;;;;;2.10;1.15;;;;;;;-144.07;100.00;58028.97;4856677;29;20052;-81
2022/06/06 10:26:35;;;;;;;3.58;0.95;;;;;;;-144.07;100.00;58028.97;4825706;29;20042;-79
2022/06/06 10:30:10;;;;;;;3.28;1.25;;;;;;;-144.07;100.00;58028.97;4833418;29;20052;-80
2022/06/06 10:32:36;;;;;;;2.15;1.00;;;;;;;-144.07;100.00;58028.97;4848693;29;20046;-79
2022/06/06 10:35:12;;;;;;;1.92;0.80;;;;;;;-144.07;100.00;58028.97;4848829;29;20052;-79
2022/06/06 10:37:47;;;;;;;;;;;;;;;-144.07;100.00;58028.97;4824455;29;20418;-81
2022/06/06 10:40:39;;;;;;;2.15;0.90;;;;;;;-144.07;100.00;58028.97;4860650;29;19920;-78
2022/06/06 10:43:28;;;;;;;1.67;0.85;;;;;;;-144.07;100.00;58028.97;4850281;29;20046;-82
2022/06/06 10:46:03;;;;;;;2.67;0.90;;;;;;;-144.07;100.00;58028.97;4837321;29;20046;-81
2022/06/06 10:48:48;;;;;;;1.13;0.80;;;;;;;-144.07;100.00;58028.97;4843535;29;20109;-80
2022/06/06 10:51:41;;;;;;;2.08;0.98;;;;;;;-144.07;100.00;58028.97;4845731;29;20041;-81
2022/06/06 10:54:19;;;;;;;0.90;0.77;;;;;;;-144.07;100.00;58028.97;4853242;29;20073;-78
2022/06/06 10:56:48;;;;;;;1.75;0.98;;;;;;;-144.07;100.00;58028.97;4873021;29;20505;-78
2022/06/06 10:59:22;;;;;;;2.03;0.85;;;;;;;-144.07;100.00;58028.97;4831984;29;20036;-80
2022/06/06 11:02:13;;;;;;;3.43;0.90;;;;;;;-144.07;100.00;58028.97;4839646;29;20106;-79
2022/06/06 11:04:57;;;;;;;1.92;0.90;;;;;;;-144.07;100.00;58028.97;4844220;29;20042;-79
2022/06/06 11:07:50;;;;;;;3.17;1.27;;;;;;;-144.07;100.00;58028.97;4837930;29;20046;-81
2022/06/06 11:10:44;;;;;;;2.67;0.90;;;;;;;-144.07;100.00;58028.97;4815978;29;20065;-81
2022/06/06 11:13:47;;;;;;;3.60;0.80;;;;;;;-144.07;100.00;58028.97;4833796;29;20042;-80
2022/06/06 11:16:20;;;;;;;2.78;0.93;;;;;;;-144.07;100.00;58028.97;4856489;29;20060;-79
2022/06/06 11:19:05;;;;;;;2.00;0.90;;;;;;;-144.07;100.00;58028.97;4857771;29;20057;-78
2022/06/06 11:22:12;;;;;;;3.33;0.90;;;;;;;-144.07;100.00;58028.97;4843327;29;20045;-79
2022/06/06 11:24:51;;;;;;;1.63;0.93;;;;;;;-144.07;100.00;58028.97;4830154;29;20058;-78
2022/06/06 11:27:20;;;;;;;1.38;0.70;;;;;;;-144.07;100.00;58028.97;4842684;29;20046;-78
2022/06/06 11:30:16;;;;;;;1.65;0.80;;;;;;;-144.07;100.00;58028.97;4859623;29;20052;-80
2022/06/06 11:33:00;;;;;;;1.40;0.77;;;;;;;-144.07;100.00;58028.97;4816104;29;20130;-80
2022/06/06 11:35:30;;;;;;;0.85;0.70;;;;;;;-144.07;100.00;58028.97;4846970;29;20133;-78
2022/06/06 11:38:30;;;;;;;2.00;0.80;;;;;;;-144.07;100.00;58028.97;4845957;29;20042;-81
2022/06/06 11:40:59;;;;;;;1.58;0.85;;;;;;;-144.07;100.00;58028.97;4853175;29;20050;-79
2022/06/06 11:43:43;;;;;;;3.53;0.80;;;;;;;-144.07;100.00;58028.97;4846440;29;20584;-80
2022/06/06 11:46:23;;;;;;;1.63;0.90;;;;;;;-144.07;100.00;58028.97;4846179;29;20042;-81
2022/06/06 11:49:07;;;;;;;2.17;1.00;;;;;;;-144.07;100.00;58028.97;4846605;29;20045;-79
2022/06/06 11:51:48;;;;;;;3.30;0.90;;;;;;;-144.07;100.00;58028.97;4837647;29;20052;-79
2022/06/06 11:54:51;;;;;;;1.55;0.93;;;;;;;-144.07;100.00;58028.97;4832523;29;20045;-79
2022/06/06 11:57:51;;;;;;;1.80;1.02;;;;;;;-144.07;100.00;58028.97;4844391;29;20451;-79
2022/06/06 12:00:44;;;;;;;2.28;1.10;;;;;;;-144.07;100.00;58028.97;4821725;29;20049;-78
2022/06/06 12:03:51;;;;;;;1.92;0.90;;;;;;;-144.07;100.00;58028.97;4850041;29;20042;-78
2022/06/06 12:06:28;;;;;;;;;;;;;;;-144.07;100.00;58028.97;4840417;29;20061;-80
2022/06/06 12:09:00;;;;;;;2.22;1.23;;;;;;;-144.07;100.00;58028.97;4845861;29;20026;-78
2022/06/06 12:11:48;;;;;;;4.05;1.10;;;;;;;-144.07;100.00;58028.97;4847025;29;20041;-80
2022/06/06 12:14:41;;;;;;;2.65;1.00;;;;;;;-144.07;100.00;58028.97;4855203;29;20045;-80
2022/06/06 12:17:45;;;;;;;3.33;1.10;;;;;;;-144.07;100.00;58028.97;4830965;29;20029;-79
2022/06/06 12:20:24;;;;;;;3.67;1.30;;;;;;;-144.07;100.00;58028.97;4845199;29;20054;-78
2022/06/06 12:23:08;;;;;;;2.35;1.25;;;;;;;-144.07;100.00;58028.97;4844521;29;20045;-79
2022/06/06 12:25:56;;;;;;;3.45;1.30;;;;;;;-144.07;100.00;58028.97;4860969;29;20493;-80